NKS658 KLAX-KPIT
Flight info
| Callsign | NKS658 |
|---|---|
| Flight time | 4h 0m |
| Altitude | 31000 |
| Route | DOTSS2 CLEEE PKE J134 GUP/N0449F330 J134 CIM Q176 HNN FEWGA7 |
| Aircraft | A321/M-SDE3FGHIRWY/LB1 |
Departure
| Time | 2026-05-04 22:17 |
|---|---|
| Airport | Los Angeles International Airport (KLAX) |
Arrival
| Time | 2026-05-05 02:17 |
|---|---|
| Airport | Pittsburgh International Airport (KPIT) |
| Time | Latitude | Longitude | Altitude | Speed | Heading |
|---|---|---|---|---|---|
| 2026-05-04 21:23 | 33.93976 | -118.40411 | 97 ft | 0 kts | 352° |
| 2026-05-04 22:05 | 33.93972 | -118.40411 | 96 ft | 2 kts | 353° |
| 2026-05-04 22:05 | 33.93955 | -118.40408 | 96 ft | 3 kts | 359° |
| 2026-05-04 22:06 | 33.93936 | -118.40410 | 97 ft | 3 kts | 27° |
| 2026-05-04 22:06 | 33.93922 | -118.40423 | 98 ft | 3 kts | 63° |
| 2026-05-04 22:06 | 33.93917 | -118.40440 | 98 ft | 1 kts | 82° |
| 2026-05-04 22:06 | 33.93917 | -118.40441 | 98 ft | 0 kts | 82° |
| 2026-05-04 22:08 | 33.93918 | -118.40430 | 98 ft | 4 kts | 83° |
| 2026-05-04 22:08 | 33.93922 | -118.40393 | 98 ft | 4 kts | 83° |
| 2026-05-04 22:09 | 33.93924 | -118.40371 | 98 ft | 2 kts | 84° |
| 2026-05-04 22:09 | 33.93926 | -118.40343 | 101 ft | 5 kts | 85° |
| 2026-05-04 22:09 | 33.93931 | -118.40299 | 98 ft | 6 kts | 82° |
| 2026-05-04 22:09 | 33.93937 | -118.40242 | 101 ft | 8 kts | 85° |
| 2026-05-04 22:10 | 33.93944 | -118.40168 | 100 ft | 9 kts | 82° |
| 2026-05-04 22:10 | 33.93952 | -118.40086 | 100 ft | 10 kts | 84° |
| 2026-05-04 22:10 | 33.93960 | -118.39996 | 98 ft | 11 kts | 84° |
| 2026-05-04 22:10 | 33.93970 | -118.39898 | 98 ft | 11 kts | 82° |
| 2026-05-04 22:11 | 33.93951 | -118.39811 | 99 ft | 11 kts | 146° |
| 2026-05-04 22:11 | 33.93913 | -118.39763 | 103 ft | 6 kts | 110° |
| 2026-05-04 22:11 | 33.93909 | -118.39723 | 103 ft | 4 kts | 86° |
| 2026-05-04 22:11 | 33.93911 | -118.39680 | 102 ft | 6 kts | 85° |
| 2026-05-04 22:12 | 33.93915 | -118.39626 | 103 ft | 7 kts | 84° |
| 2026-05-04 22:12 | 33.93923 | -118.39558 | 103 ft | 9 kts | 84° |
| 2026-05-04 22:12 | 33.93933 | -118.39469 | 102 ft | 12 kts | 84° |
| 2026-05-04 22:12 | 33.93945 | -118.39347 | 101 ft | 17 kts | 83° |
| 2026-05-04 22:13 | 33.93960 | -118.39203 | 101 ft | 16 kts | 84° |
| 2026-05-04 22:13 | 33.93975 | -118.39060 | 102 ft | 19 kts | 80° |
| 2026-05-04 22:13 | 33.93991 | -118.38898 | 102 ft | 19 kts | 86° |
| 2026-05-04 22:13 | 33.94005 | -118.38753 | 102 ft | 15 kts | 85° |
| 2026-05-04 22:14 | 33.94018 | -118.38630 | 103 ft | 15 kts | 85° |
| 2026-05-04 22:14 | 33.94030 | -118.38510 | 103 ft | 14 kts | 81° |
| 2026-05-04 22:14 | 33.94043 | -118.38394 | 103 ft | 14 kts | 84° |
| 2026-05-04 22:14 | 33.94052 | -118.38279 | 103 ft | 14 kts | 83° |
| 2026-05-04 22:15 | 33.94065 | -118.38166 | 103 ft | 14 kts | 83° |
| 2026-05-04 22:15 | 33.94077 | -118.38058 | 102 ft | 9 kts | 82° |
| 2026-05-04 22:15 | 33.94078 | -118.38038 | 102 ft | 0 kts | 90° |
| 2026-05-04 22:15 | 33.94075 | -118.38023 | 103 ft | 5 kts | 108° |
| 2026-05-04 22:16 | 33.94038 | -118.37999 | 107 ft | 10 kts | 167° |
| 2026-05-04 22:16 | 33.93982 | -118.38040 | 109 ft | 10 kts | 261° |
| 2026-05-04 22:16 | 33.93960 | -118.38264 | 109 ft | 56 kts | 263° |
| 2026-05-04 22:16 | 33.93886 | -118.38985 | 107 ft | 115 kts | 263° |
| 2026-05-04 22:17 | 33.93768 | -118.40144 | 113 ft | 162 kts | 263° |
| 2026-05-04 22:17 | 33.93627 | -118.41534 | 659 ft | 166 kts | 262° |
| 2026-05-04 22:17 | 33.93477 | -118.42924 | 1406 ft | 169 kts | 261° |
| 2026-05-04 22:17 | 33.93326 | -118.44405 | 1901 ft | 187 kts | 261° |
| 2026-05-04 22:18 | 33.92963 | -118.45958 | 2062 ft | 206 kts | 244° |
| 2026-05-04 22:18 | 33.92120 | -118.47459 | 2201 ft | 228 kts | 232° |
| 2026-05-04 22:18 | 33.91100 | -118.49007 | 2548 ft | 242 kts | 232° |
| 2026-05-04 22:18 | 33.90027 | -118.50592 | 3171 ft | 247 kts | 231° |
| 2026-05-04 22:19 | 33.88911 | -118.52179 | 3762 ft | 250 kts | 230° |
| 2026-05-04 22:19 | 33.87773 | -118.53779 | 4348 ft | 253 kts | 230° |
| 2026-05-04 22:19 | 33.86402 | -118.55136 | 4879 ft | 261 kts | 210° |
| 2026-05-04 22:19 | 33.84667 | -118.55806 | 4978 ft | 265 kts | 187° |
| 2026-05-04 22:20 | 33.82829 | -118.55645 | 4998 ft | 268 kts | 169° |
| 2026-05-04 22:20 | 33.80999 | -118.55131 | 5132 ft | 272 kts | 170° |
| 2026-05-04 22:20 | 33.79157 | -118.54627 | 5784 ft | 272 kts | 170° |
| 2026-05-04 22:20 | 33.77301 | -118.54125 | 6412 ft | 274 kts | 170° |
| 2026-05-04 22:21 | 33.75432 | -118.53621 | 6987 ft | 277 kts | 170° |
| 2026-05-04 22:21 | 33.73549 | -118.53113 | 7564 ft | 278 kts | 170° |
| 2026-05-04 22:21 | 33.71703 | -118.52386 | 8135 ft | 283 kts | 155° |
| 2026-05-04 22:21 | 33.70084 | -118.51008 | 8689 ft | 289 kts | 137° |
| 2026-05-04 22:22 | 33.68876 | -118.49057 | 9252 ft | 296 kts | 119° |
| 2026-05-04 22:22 | 33.68123 | -118.46735 | 9790 ft | 300 kts | 112° |
| 2026-05-04 22:22 | 33.67427 | -118.44351 | 10217 ft | 308 kts | 112° |
| 2026-05-04 22:22 | 33.66691 | -118.41856 | 10335 ft | 326 kts | 112° |
| 2026-05-04 22:23 | 33.65907 | -118.39213 | 10466 ft | 347 kts | 112° |
| 2026-05-04 22:23 | 33.65080 | -118.36410 | 10656 ft | 364 kts | 110° |
| 2026-05-04 22:23 | 33.64538 | -118.33404 | 11071 ft | 373 kts | 98° |
| 2026-05-04 22:23 | 33.64461 | -118.30269 | 11551 ft | 379 kts | 91° |
| 2026-05-04 22:24 | 33.64476 | -118.27099 | 12057 ft | 382 kts | 91° |
| 2026-05-04 22:24 | 33.64479 | -118.23897 | 12556 ft | 385 kts | 92° |
| 2026-05-04 22:24 | 33.64474 | -118.20672 | 13038 ft | 388 kts | 92° |
| 2026-05-04 22:24 | 33.64468 | -118.17422 | 13526 ft | 391 kts | 92° |
| 2026-05-04 22:25 | 33.64465 | -118.14145 | 13969 ft | 394 kts | 92° |
| 2026-05-04 22:25 | 33.64464 | -118.10841 | 14376 ft | 398 kts | 92° |
| 2026-05-04 22:25 | 33.64461 | -118.07497 | 14801 ft | 403 kts | 92° |
| 2026-05-04 22:25 | 33.64457 | -118.04117 | 15276 ft | 407 kts | 93° |
| 2026-05-04 22:26 | 33.64454 | -118.00696 | 15723 ft | 412 kts | 93° |
| 2026-05-04 22:26 | 33.64450 | -117.97236 | 16136 ft | 417 kts | 93° |
| 2026-05-04 22:26 | 33.64444 | -117.93742 | 16533 ft | 421 kts | 93° |
| 2026-05-04 22:26 | 33.64437 | -117.90216 | 16911 ft | 425 kts | 93° |
| 2026-05-04 22:27 | 33.64425 | -117.86647 | 17282 ft | 430 kts | 93° |
| 2026-05-04 22:27 | 33.64414 | -117.83043 | 17663 ft | 434 kts | 93° |
| 2026-05-04 22:27 | 33.64539 | -117.79404 | 18003 ft | 441 kts | 85° |
| 2026-05-04 22:27 | 33.65128 | -117.75770 | 18369 ft | 447 kts | 78° |
| 2026-05-04 22:28 | 33.65846 | -117.72126 | 18690 ft | 451 kts | 78° |
| 2026-05-04 22:28 | 33.66331 | -117.69645 | 18908 ft | 453 kts | 79° |
| 2026-05-04 22:28 | 33.67048 | -117.65938 | 19226 ft | 457 kts | 79° |
| 2026-05-04 22:28 | 33.67763 | -117.62203 | 19552 ft | 461 kts | 79° |
| 2026-05-04 22:29 | 33.68480 | -117.58436 | 19853 ft | 465 kts | 79° |
| 2026-05-04 22:29 | 33.69202 | -117.54644 | 20190 ft | 469 kts | 79° |
| 2026-05-04 22:29 | 33.69935 | -117.50809 | 20530 ft | 472 kts | 79° |
| 2026-05-04 22:29 | 33.70670 | -117.46948 | 20848 ft | 476 kts | 79° |
| 2026-05-04 22:30 | 33.71409 | -117.43063 | 21114 ft | 479 kts | 79° |
| 2026-05-04 22:30 | 33.72154 | -117.39150 | 21411 ft | 482 kts | 79° |
| 2026-05-04 22:30 | 33.72903 | -117.35205 | 21704 ft | 486 kts | 79° |
| 2026-05-04 22:30 | 33.73650 | -117.31234 | 21992 ft | 489 kts | 79° |
| 2026-05-04 22:31 | 33.74400 | -117.27237 | 22267 ft | 492 kts | 79° |
| 2026-05-04 22:31 | 33.74966 | -117.23186 | 22535 ft | 492 kts | 88° |
| 2026-05-04 22:31 | 33.75058 | -117.19087 | 22819 ft | 491 kts | 96° |
| 2026-05-04 22:31 | 33.74973 | -117.14971 | 23138 ft | 494 kts | 96° |
| 2026-05-04 22:32 | 33.74888 | -117.10837 | 23420 ft | 497 kts | 96° |
| 2026-05-04 22:32 | 33.74803 | -117.06680 | 23696 ft | 499 kts | 96° |
| 2026-05-04 22:32 | 33.74724 | -117.02808 | 23907 ft | 502 kts | 96° |
| 2026-05-04 22:32 | 33.74632 | -116.98472 | 24138 ft | 504 kts | 96° |
| 2026-05-04 22:33 | 33.74543 | -116.94254 | 24378 ft | 506 kts | 96° |
| 2026-05-04 22:33 | 33.74452 | -116.90011 | 24606 ft | 509 kts | 96° |
| 2026-05-04 22:33 | 33.74355 | -116.85760 | 24820 ft | 511 kts | 96° |
| 2026-05-04 22:33 | 33.74254 | -116.81487 | 25038 ft | 513 kts | 96° |
| 2026-05-04 22:34 | 33.74153 | -116.77194 | 25272 ft | 515 kts | 96° |
| 2026-05-04 22:34 | 33.74053 | -116.72883 | 25453 ft | 517 kts | 96° |
| 2026-05-04 22:34 | 33.73952 | -116.68564 | 25678 ft | 519 kts | 97° |
| 2026-05-04 22:34 | 33.73848 | -116.64212 | 25921 ft | 521 kts | 97° |
| 2026-05-04 22:35 | 33.73743 | -116.59865 | 26041 ft | 519 kts | 97° |
| 2026-05-04 22:35 | 33.73637 | -116.55529 | 26178 ft | 520 kts | 97° |
| 2026-05-04 22:35 | 33.73530 | -116.51183 | 26295 ft | 522 kts | 97° |
| 2026-05-04 22:35 | 33.73419 | -116.46809 | 26431 ft | 525 kts | 97° |
| 2026-05-04 22:36 | 33.73304 | -116.42415 | 26616 ft | 528 kts | 97° |
| 2026-05-04 22:36 | 33.73186 | -116.38000 | 26798 ft | 530 kts | 97° |
| 2026-05-04 22:36 | 33.73065 | -116.33568 | 26983 ft | 532 kts | 97° |
| 2026-05-04 22:36 | 33.72945 | -116.29114 | 27144 ft | 534 kts | 97° |
| 2026-05-04 22:37 | 33.72826 | -116.24650 | 27327 ft | 536 kts | 97° |
| 2026-05-04 22:37 | 33.72706 | -116.20168 | 27515 ft | 538 kts | 97° |
| 2026-05-04 22:37 | 33.72580 | -116.15675 | 27709 ft | 539 kts | 97° |
| 2026-05-04 22:37 | 33.72509 | -116.11161 | 27903 ft | 544 kts | 92° |
| 2026-05-04 22:38 | 33.72879 | -116.06612 | 28097 ft | 551 kts | 83° |
| 2026-05-04 22:38 | 33.73784 | -116.02121 | 28299 ft | 556 kts | 73° |
| 2026-05-04 22:38 | 33.75019 | -115.97715 | 28494 ft | 558 kts | 72° |
| 2026-05-04 22:38 | 33.76258 | -115.93293 | 28691 ft | 559 kts | 72° |
| 2026-05-04 22:39 | 33.77490 | -115.88858 | 28973 ft | 559 kts | 73° |
| 2026-05-04 22:39 | 33.78715 | -115.84429 | 29251 ft | 559 kts | 73° |
| 2026-05-04 22:39 | 33.79939 | -115.79992 | 29527 ft | 558 kts | 73° |
| 2026-05-04 22:39 | 33.81160 | -115.75560 | 29788 ft | 558 kts | 73° |
| 2026-05-04 22:40 | 33.82379 | -115.71130 | 30050 ft | 558 kts | 73° |
| 2026-05-04 22:40 | 33.83597 | -115.66702 | 30263 ft | 558 kts | 73° |
| 2026-05-04 22:40 | 33.84813 | -115.62277 | 30472 ft | 558 kts | 73° |
| 2026-05-04 22:40 | 33.86031 | -115.57840 | 30682 ft | 558 kts | 73° |
| 2026-05-04 22:41 | 33.87249 | -115.53398 | 30850 ft | 559 kts | 72° |
| 2026-05-04 22:41 | 33.89663 | -115.44570 | 30892 ft | 554 kts | 72° |
| 2026-05-04 22:42 | 33.92061 | -115.35770 | 30880 ft | 552 kts | 73° |
| 2026-05-04 22:42 | 33.94440 | -115.26996 | 30878 ft | 552 kts | 73° |
| 2026-05-04 22:43 | 33.96811 | -115.18214 | 30870 ft | 551 kts | 73° |
| 2026-05-04 22:43 | 33.99176 | -115.09444 | 30876 ft | 550 kts | 73° |
| 2026-05-04 22:44 | 34.01532 | -115.00686 | 30870 ft | 549 kts | 72° |
| 2026-05-04 22:44 | 34.03880 | -114.91933 | 30887 ft | 548 kts | 72° |
| 2026-05-04 22:45 | 34.06212 | -114.83200 | 30887 ft | 547 kts | 72° |
| 2026-05-04 22:45 | 34.09698 | -114.70116 | 30875 ft | 546 kts | 72° |
| 2026-05-04 22:46 | 34.12059 | -114.61417 | 30868 ft | 545 kts | 71° |
| 2026-05-04 22:46 | 34.14523 | -114.52778 | 30866 ft | 544 kts | 71° |
| 2026-05-04 22:47 | 34.17002 | -114.44141 | 30860 ft | 544 kts | 71° |
| 2026-05-04 22:47 | 34.19447 | -114.35498 | 30857 ft | 544 kts | 71° |
| 2026-05-04 22:48 | 34.21861 | -114.26848 | 30858 ft | 543 kts | 71° |
| 2026-05-04 22:48 | 34.24259 | -114.18196 | 30858 ft | 543 kts | 71° |
| 2026-05-04 22:49 | 34.26656 | -114.09549 | 30866 ft | 542 kts | 71° |
| 2026-05-04 22:49 | 34.29066 | -114.00917 | 30860 ft | 542 kts | 71° |
| 2026-05-04 22:50 | 34.31466 | -113.92284 | 30864 ft | 541 kts | 71° |
| 2026-05-04 22:50 | 34.33848 | -113.83647 | 30868 ft | 541 kts | 71° |
| 2026-05-04 22:51 | 34.36218 | -113.75010 | 30869 ft | 540 kts | 71° |
| 2026-05-04 22:51 | 34.38579 | -113.66377 | 30867 ft | 540 kts | 71° |
| 2026-05-04 22:52 | 34.40925 | -113.57754 | 30871 ft | 539 kts | 71° |
| 2026-05-04 22:52 | 34.43275 | -113.49133 | 30870 ft | 539 kts | 71° |
| 2026-05-04 22:53 | 34.45623 | -113.40525 | 30862 ft | 538 kts | 71° |
| 2026-05-04 22:53 | 34.47954 | -113.31907 | 30867 ft | 538 kts | 71° |
| 2026-05-04 22:54 | 34.50274 | -113.23282 | 30866 ft | 538 kts | 71° |
| 2026-05-04 22:54 | 34.52588 | -113.14665 | 30866 ft | 537 kts | 71° |
| 2026-05-04 22:55 | 34.54882 | -113.06104 | 30870 ft | 537 kts | 71° |
| 2026-05-04 22:55 | 34.57187 | -112.97488 | 30871 ft | 537 kts | 71° |
| 2026-05-04 22:56 | 34.59487 | -112.88874 | 30868 ft | 536 kts | 71° |
| 2026-05-04 22:56 | 34.61775 | -112.80258 | 30901 ft | 536 kts | 71° |
| 2026-05-04 22:57 | 34.64066 | -112.71584 | 30954 ft | 535 kts | 71° |
| 2026-05-04 22:57 | 34.66317 | -112.63033 | 31001 ft | 535 kts | 71° |
| 2026-05-04 22:58 | 34.68575 | -112.54431 | 31041 ft | 534 kts | 71° |
| 2026-05-04 22:58 | 34.70813 | -112.45830 | 31056 ft | 534 kts | 72° |
| 2026-05-04 22:59 | 34.72867 | -112.37166 | 31054 ft | 534 kts | 73° |
| 2026-05-04 22:59 | 34.74795 | -112.28456 | 31017 ft | 534 kts | 74° |
| 2026-05-04 23:00 | 34.76737 | -112.19749 | 30969 ft | 533 kts | 73° |
| 2026-05-04 23:00 | 34.78730 | -112.11053 | 30926 ft | 533 kts | 73° |
| 2026-05-04 23:01 | 34.80728 | -112.02363 | 30969 ft | 533 kts | 73° |
| 2026-05-04 23:01 | 34.82712 | -111.93663 | 31007 ft | 534 kts | 73° |
| 2026-05-04 23:02 | 34.84676 | -111.84951 | 31026 ft | 534 kts | 73° |
| 2026-05-04 23:02 | 34.86627 | -111.76228 | 31029 ft | 534 kts | 73° |
| 2026-05-04 23:03 | 34.88581 | -111.67492 | 31026 ft | 534 kts | 73° |
| 2026-05-04 23:03 | 34.90538 | -111.58762 | 30986 ft | 534 kts | 73° |
| 2026-05-04 23:04 | 34.92486 | -111.50035 | 30946 ft | 534 kts | 73° |
| 2026-05-04 23:04 | 34.94420 | -111.41308 | 30931 ft | 533 kts | 73° |
| 2026-05-04 23:05 | 34.96342 | -111.32576 | 30898 ft | 533 kts | 73° |
| 2026-05-04 23:05 | 34.98263 | -111.23857 | 30864 ft | 533 kts | 73° |
| 2026-05-04 23:06 | 35.00182 | -111.15138 | 30855 ft | 532 kts | 73° |
| 2026-05-04 23:06 | 35.02086 | -111.06405 | 30890 ft | 532 kts | 74° |
| 2026-05-04 23:07 | 35.03979 | -110.97682 | 30924 ft | 532 kts | 73° |
| 2026-05-04 23:07 | 35.05866 | -110.88947 | 30961 ft | 532 kts | 74° |
| 2026-05-04 23:08 | 35.07751 | -110.80211 | 30992 ft | 532 kts | 73° |
| 2026-05-04 23:08 | 35.09334 | -110.72886 | 30990 ft | 532 kts | 74° |
| 2026-05-04 23:09 | 35.11209 | -110.64135 | 30974 ft | 533 kts | 74° |
| 2026-05-04 23:09 | 35.13075 | -110.55380 | 30936 ft | 533 kts | 74° |
| 2026-05-04 23:10 | 35.14941 | -110.46607 | 30892 ft | 533 kts | 74° |
| 2026-05-04 23:10 | 35.16807 | -110.37843 | 30845 ft | 533 kts | 74° |
| 2026-05-04 23:11 | 35.18661 | -110.29058 | 30818 ft | 533 kts | 74° |
| 2026-05-04 23:11 | 35.20496 | -110.20281 | 30817 ft | 533 kts | 74° |
| 2026-05-04 23:12 | 35.22340 | -110.11492 | 30818 ft | 534 kts | 74° |
| 2026-05-04 23:12 | 35.24183 | -110.02694 | 30816 ft | 534 kts | 74° |
| 2026-05-04 23:13 | 35.26017 | -109.93887 | 30816 ft | 534 kts | 74° |
| 2026-05-04 23:13 | 35.27842 | -109.85082 | 30814 ft | 534 kts | 74° |
| 2026-05-04 23:14 | 35.29660 | -109.76259 | 30815 ft | 534 kts | 75° |
| 2026-05-04 23:14 | 35.31466 | -109.67436 | 30816 ft | 534 kts | 75° |
| 2026-05-04 23:15 | 35.33267 | -109.58611 | 30814 ft | 534 kts | 75° |
| 2026-05-04 23:15 | 35.35069 | -109.49770 | 30816 ft | 535 kts | 75° |
| 2026-05-04 23:16 | 35.36865 | -109.40934 | 30810 ft | 534 kts | 75° |
| 2026-05-04 23:16 | 35.38653 | -109.32100 | 30824 ft | 534 kts | 75° |
| 2026-05-04 23:17 | 35.40435 | -109.23262 | 30863 ft | 535 kts | 75° |
| 2026-05-04 23:17 | 35.42216 | -109.14396 | 30905 ft | 535 kts | 75° |
| 2026-05-04 23:18 | 35.43986 | -109.05526 | 30917 ft | 536 kts | 75° |
| 2026-05-04 23:18 | 35.45750 | -108.96644 | 30976 ft | 536 kts | 75° |
| 2026-05-04 23:19 | 35.47508 | -108.87756 | 31045 ft | 537 kts | 75° |
| 2026-05-04 23:19 | 35.49594 | -108.78938 | 31187 ft | 540 kts | 69° |
| 2026-05-04 23:20 | 35.50827 | -108.74589 | 31353 ft | 541 kts | 68° |
| 2026-05-04 23:20 | 35.52116 | -108.70240 | 31556 ft | 542 kts | 67° |
| 2026-05-04 23:20 | 35.53405 | -108.65891 | 31732 ft | 542 kts | 68° |
| 2026-05-04 23:20 | 35.54661 | -108.61527 | 31886 ft | 543 kts | 68° |
| 2026-05-04 23:21 | 35.55882 | -108.57125 | 32048 ft | 544 kts | 69° |
| 2026-05-04 23:21 | 35.57071 | -108.52709 | 32188 ft | 545 kts | 69° |
| 2026-05-04 23:21 | 35.58246 | -108.48279 | 32337 ft | 546 kts | 69° |
| 2026-05-04 23:21 | 35.59414 | -108.43844 | 32505 ft | 546 kts | 69° |
| 2026-05-04 23:22 | 35.61787 | -108.34984 | 32583 ft | 545 kts | 69° |
| 2026-05-04 23:22 | 35.62982 | -108.30558 | 32729 ft | 546 kts | 69° |
| 2026-05-04 23:22 | 35.64174 | -108.26111 | 32770 ft | 551 kts | 70° |
| 2026-05-04 23:23 | 35.66582 | -108.17082 | 32774 ft | 560 kts | 70° |
| 2026-05-04 23:23 | 35.69021 | -108.07924 | 32782 ft | 565 kts | 70° |
| 2026-05-04 23:24 | 35.71456 | -107.98728 | 32786 ft | 566 kts | 70° |
| 2026-05-04 23:24 | 35.73890 | -107.89513 | 32799 ft | 566 kts | 70° |
| 2026-05-04 23:25 | 35.76315 | -107.80295 | 32808 ft | 566 kts | 70° |
| 2026-05-04 23:25 | 35.78736 | -107.71076 | 32822 ft | 566 kts | 69° |
| 2026-05-04 23:26 | 35.81156 | -107.61846 | 32836 ft | 566 kts | 69° |
| 2026-05-04 23:26 | 35.83573 | -107.52597 | 32849 ft | 567 kts | 69° |
| 2026-05-04 23:27 | 35.85967 | -107.43352 | 32856 ft | 567 kts | 69° |
| 2026-05-04 23:27 | 35.88359 | -107.34088 | 32859 ft | 567 kts | 69° |
| 2026-05-04 23:28 | 35.90753 | -107.24817 | 32858 ft | 568 kts | 69° |
| 2026-05-04 23:28 | 35.93143 | -107.15532 | 32864 ft | 568 kts | 69° |
| 2026-05-04 23:29 | 35.95522 | -107.06238 | 32857 ft | 568 kts | 69° |
| 2026-05-04 23:29 | 35.97892 | -106.96938 | 32864 ft | 569 kts | 69° |
| 2026-05-04 23:30 | 36.00257 | -106.87617 | 32855 ft | 569 kts | 69° |
| 2026-05-04 23:30 | 36.02619 | -106.78295 | 32847 ft | 569 kts | 69° |
| 2026-05-04 23:31 | 36.04973 | -106.68970 | 32849 ft | 568 kts | 69° |
| 2026-05-04 23:31 | 36.07308 | -106.59702 | 32856 ft | 569 kts | 69° |
| 2026-05-04 23:32 | 36.09649 | -106.50369 | 32870 ft | 568 kts | 69° |
| 2026-05-04 23:32 | 36.11995 | -106.40973 | 32894 ft | 568 kts | 69° |
| 2026-05-04 23:33 | 36.14302 | -106.31690 | 32892 ft | 568 kts | 69° |
| 2026-05-04 23:33 | 36.16636 | -106.22285 | 32861 ft | 568 kts | 69° |
| 2026-05-04 23:34 | 36.18933 | -106.13003 | 32831 ft | 568 kts | 69° |
| 2026-05-04 23:34 | 36.21230 | -106.03661 | 32803 ft | 567 kts | 69° |
| 2026-05-04 23:35 | 36.23515 | -105.94316 | 32806 ft | 567 kts | 69° |
| 2026-05-04 23:35 | 36.25804 | -105.84920 | 32799 ft | 566 kts | 69° |
| 2026-05-04 23:36 | 36.28063 | -105.75648 | 32812 ft | 566 kts | 69° |
| 2026-05-04 23:36 | 36.30325 | -105.66310 | 32842 ft | 565 kts | 69° |
| 2026-05-04 23:37 | 36.32582 | -105.56973 | 32910 ft | 565 kts | 69° |
| 2026-05-04 23:37 | 36.34833 | -105.47631 | 32985 ft | 566 kts | 69° |
| 2026-05-04 23:38 | 36.37070 | -105.38274 | 33056 ft | 565 kts | 69° |
| 2026-05-04 23:38 | 36.39298 | -105.28916 | 33061 ft | 565 kts | 69° |
| 2026-05-04 23:39 | 36.41518 | -105.19555 | 33065 ft | 565 kts | 69° |
| 2026-05-04 23:39 | 36.43743 | -105.10195 | 32997 ft | 565 kts | 69° |
| 2026-05-04 23:40 | 36.45950 | -105.00843 | 32897 ft | 564 kts | 70° |
| 2026-05-04 23:40 | 36.48142 | -104.91476 | 32788 ft | 564 kts | 70° |
| 2026-05-04 23:41 | 36.49914 | -104.81977 | 32707 ft | 566 kts | 77° |
| 2026-05-04 23:41 | 36.51318 | -104.72354 | 32744 ft | 566 kts | 77° |
| 2026-05-04 23:42 | 36.52721 | -104.62729 | 32771 ft | 566 kts | 77° |
| 2026-05-04 23:42 | 36.54114 | -104.53106 | 32809 ft | 566 kts | 77° |
| 2026-05-04 23:43 | 36.55503 | -104.43456 | 32809 ft | 567 kts | 77° |
| 2026-05-04 23:43 | 36.56880 | -104.33807 | 32787 ft | 567 kts | 77° |
| 2026-05-04 23:44 | 36.58258 | -104.24144 | 32750 ft | 567 kts | 77° |
| 2026-05-04 23:44 | 36.59627 | -104.14476 | 32703 ft | 568 kts | 77° |
| 2026-05-04 23:45 | 36.60986 | -104.04789 | 32666 ft | 568 kts | 77° |
| 2026-05-04 23:45 | 36.62338 | -103.95092 | 32672 ft | 569 kts | 77° |
| 2026-05-04 23:46 | 36.63688 | -103.85386 | 32673 ft | 569 kts | 77° |
| 2026-05-04 23:46 | 36.65032 | -103.75676 | 32674 ft | 570 kts | 77° |
| 2026-05-04 23:47 | 36.66359 | -103.65948 | 32676 ft | 570 kts | 77° |
| 2026-05-04 23:47 | 36.67679 | -103.56213 | 32672 ft | 570 kts | 77° |
| 2026-05-04 23:48 | 36.69000 | -103.46483 | 32675 ft | 570 kts | 77° |
| 2026-05-04 23:48 | 36.70314 | -103.36745 | 32692 ft | 570 kts | 77° |
| 2026-05-04 23:49 | 36.71612 | -103.27015 | 32704 ft | 570 kts | 77° |
| 2026-05-04 23:49 | 36.72894 | -103.17266 | 32700 ft | 570 kts | 77° |
| 2026-05-04 23:50 | 36.73958 | -103.09162 | 32692 ft | 570 kts | 77° |
| 2026-05-04 23:50 | 36.75368 | -102.99452 | 32661 ft | 568 kts | 75° |
| 2026-05-04 23:51 | 36.76915 | -102.89788 | 32634 ft | 568 kts | 74° |
| 2026-05-04 23:51 | 36.78431 | -102.80115 | 32632 ft | 568 kts | 75° |
| 2026-05-04 23:52 | 36.79879 | -102.70423 | 32627 ft | 568 kts | 75° |
| 2026-05-04 23:52 | 36.81303 | -102.60723 | 32631 ft | 568 kts | 75° |
| 2026-05-04 23:53 | 36.82729 | -102.51033 | 32617 ft | 568 kts | 75° |
| 2026-05-04 23:53 | 36.84182 | -102.41275 | 32620 ft | 568 kts | 75° |
| 2026-05-04 23:54 | 36.85615 | -102.31588 | 32614 ft | 567 kts | 75° |
| 2026-05-04 23:54 | 36.87015 | -102.21955 | 32645 ft | 567 kts | 75° |
| 2026-05-04 23:55 | 36.88409 | -102.12264 | 32683 ft | 567 kts | 75° |
| 2026-05-04 23:56 | 36.90499 | -101.97725 | 32739 ft | 567 kts | 75° |
| 2026-05-04 23:56 | 36.91883 | -101.88038 | 32766 ft | 566 kts | 75° |
| 2026-05-04 23:57 | 36.93262 | -101.78357 | 32757 ft | 566 kts | 75° |
| 2026-05-04 23:57 | 36.94632 | -101.68674 | 32720 ft | 566 kts | 75° |
| 2026-05-04 23:58 | 36.95985 | -101.58986 | 32687 ft | 565 kts | 75° |
| 2026-05-04 23:58 | 36.97334 | -101.49299 | 32676 ft | 565 kts | 75° |
| 2026-05-04 23:59 | 36.98684 | -101.39544 | 32693 ft | 566 kts | 75° |
| 2026-05-04 23:59 | 37.00014 | -101.29847 | 32695 ft | 566 kts | 75° |
| 2026-05-05 00:00 | 37.01346 | -101.20145 | 32683 ft | 566 kts | 75° |
| 2026-05-05 00:00 | 37.02676 | -101.10429 | 32707 ft | 567 kts | 75° |
| 2026-05-05 00:01 | 37.03985 | -101.00698 | 32712 ft | 567 kts | 75° |
| 2026-05-05 00:01 | 37.05775 | -100.91222 | 32726 ft | 561 kts | 68° |
| 2026-05-05 00:02 | 37.07873 | -100.81802 | 32684 ft | 562 kts | 68° |
| 2026-05-05 00:02 | 37.09961 | -100.72357 | 32665 ft | 563 kts | 68° |
| 2026-05-05 00:03 | 37.12039 | -100.62901 | 32655 ft | 563 kts | 68° |
| 2026-05-05 00:03 | 37.14113 | -100.53443 | 32625 ft | 563 kts | 68° |
| 2026-05-05 00:04 | 37.16177 | -100.43990 | 32623 ft | 562 kts | 68° |
| 2026-05-05 00:04 | 37.18239 | -100.34539 | 32626 ft | 562 kts | 68° |
| 2026-05-05 00:05 | 37.20289 | -100.25085 | 32628 ft | 562 kts | 68° |
| 2026-05-05 00:05 | 37.22326 | -100.15622 | 32616 ft | 562 kts | 68° |
| 2026-05-05 00:06 | 37.24354 | -100.06164 | 32615 ft | 562 kts | 68° |
| 2026-05-05 00:06 | 37.26378 | -99.96693 | 32613 ft | 562 kts | 68° |
| 2026-05-05 00:07 | 37.28404 | -99.87221 | 32606 ft | 561 kts | 69° |
| 2026-05-05 00:07 | 37.30414 | -99.77745 | 32604 ft | 562 kts | 69° |
| 2026-05-05 00:08 | 37.32412 | -99.68258 | 32612 ft | 562 kts | 69° |
| 2026-05-05 00:08 | 37.34406 | -99.58773 | 32613 ft | 562 kts | 69° |
| 2026-05-05 00:09 | 37.36400 | -99.49279 | 32615 ft | 561 kts | 69° |
| 2026-05-05 00:09 | 37.38374 | -99.39784 | 32619 ft | 561 kts | 69° |
| 2026-05-05 00:10 | 37.40340 | -99.30290 | 32619 ft | 561 kts | 69° |
| 2026-05-05 00:10 | 37.42299 | -99.20799 | 32625 ft | 560 kts | 69° |
| 2026-05-05 00:11 | 37.44256 | -99.11309 | 32627 ft | 560 kts | 69° |
| 2026-05-05 00:11 | 37.46204 | -99.01813 | 32641 ft | 560 kts | 69° |
| 2026-05-05 00:12 | 37.48140 | -98.92320 | 32658 ft | 560 kts | 69° |
| 2026-05-05 00:12 | 37.50063 | -98.82814 | 32673 ft | 560 kts | 70° |
| 2026-05-05 00:13 | 37.51985 | -98.73306 | 32679 ft | 560 kts | 70° |
| 2026-05-05 00:13 | 37.53906 | -98.63803 | 32678 ft | 560 kts | 70° |
| 2026-05-05 00:14 | 37.55819 | -98.54292 | 32667 ft | 560 kts | 70° |
| 2026-05-05 00:14 | 37.57709 | -98.44768 | 32656 ft | 560 kts | 70° |
| 2026-05-05 00:15 | 37.59590 | -98.35243 | 32641 ft | 560 kts | 70° |
| 2026-05-05 00:15 | 37.61471 | -98.25709 | 32632 ft | 560 kts | 70° |
| 2026-05-05 00:16 | 37.63344 | -98.16177 | 32637 ft | 560 kts | 70° |
| 2026-05-05 00:16 | 37.65213 | -98.06642 | 32635 ft | 560 kts | 70° |
| 2026-05-05 00:17 | 37.67079 | -97.97098 | 32635 ft | 560 kts | 70° |
| 2026-05-05 00:17 | 37.68933 | -97.87544 | 32640 ft | 560 kts | 70° |
| 2026-05-05 00:18 | 37.70774 | -97.77987 | 32659 ft | 560 kts | 70° |
| 2026-05-05 00:18 | 37.72610 | -97.68430 | 32676 ft | 560 kts | 70° |
| 2026-05-05 00:19 | 37.74441 | -97.58871 | 32692 ft | 560 kts | 70° |
| 2026-05-05 00:19 | 37.76237 | -97.49290 | 32701 ft | 560 kts | 70° |
| 2026-05-05 00:20 | 37.77981 | -97.39695 | 32701 ft | 560 kts | 70° |
| 2026-05-05 00:20 | 37.79713 | -97.30104 | 32719 ft | 560 kts | 70° |
| 2026-05-05 00:21 | 37.81451 | -97.20517 | 32710 ft | 559 kts | 70° |
| 2026-05-05 00:21 | 37.83187 | -97.10934 | 32719 ft | 559 kts | 70° |
| 2026-05-05 00:22 | 37.84909 | -97.01355 | 32718 ft | 558 kts | 70° |
| 2026-05-05 00:22 | 37.86620 | -96.91778 | 32723 ft | 558 kts | 70° |
| 2026-05-05 00:23 | 37.88317 | -96.82207 | 32727 ft | 557 kts | 70° |
| 2026-05-05 00:23 | 37.90010 | -96.72649 | 32728 ft | 556 kts | 70° |
| 2026-05-05 00:24 | 37.91701 | -96.63098 | 32718 ft | 555 kts | 70° |
| 2026-05-05 00:24 | 37.93375 | -96.53555 | 32715 ft | 554 kts | 70° |
| 2026-05-05 00:25 | 37.95034 | -96.44031 | 32708 ft | 553 kts | 70° |
| 2026-05-05 00:25 | 37.96680 | -96.34519 | 32708 ft | 552 kts | 71° |
| 2026-05-05 00:26 | 37.98312 | -96.25031 | 32702 ft | 550 kts | 71° |
| 2026-05-05 00:26 | 37.99939 | -96.15561 | 32703 ft | 549 kts | 71° |
| 2026-05-05 00:27 | 38.01561 | -96.06121 | 32709 ft | 548 kts | 71° |
| 2026-05-05 00:27 | 38.03170 | -95.96691 | 32704 ft | 546 kts | 71° |
| 2026-05-05 00:28 | 38.04760 | -95.87274 | 32719 ft | 545 kts | 71° |
| 2026-05-05 00:28 | 38.06334 | -95.77873 | 32720 ft | 544 kts | 71° |
| 2026-05-05 00:29 | 38.07902 | -95.68509 | 32723 ft | 542 kts | 72° |
| 2026-05-05 00:29 | 38.09459 | -95.59164 | 32731 ft | 540 kts | 72° |
| 2026-05-05 00:30 | 38.11001 | -95.49836 | 32726 ft | 539 kts | 72° |
| 2026-05-05 00:30 | 38.12532 | -95.40530 | 32719 ft | 537 kts | 72° |
| 2026-05-05 00:31 | 38.13798 | -95.32821 | 32716 ft | 536 kts | 72° |
| 2026-05-05 00:31 | 38.15309 | -95.23570 | 32715 ft | 534 kts | 72° |
| 2026-05-05 00:32 | 38.16809 | -95.14330 | 32717 ft | 533 kts | 72° |
| 2026-05-05 00:32 | 38.18300 | -95.05108 | 32718 ft | 532 kts | 73° |
| 2026-05-05 00:33 | 38.19777 | -94.95903 | 32723 ft | 531 kts | 73° |
| 2026-05-05 00:33 | 38.21241 | -94.86709 | 32718 ft | 530 kts | 73° |
| 2026-05-05 00:34 | 38.22701 | -94.77534 | 32716 ft | 529 kts | 73° |
| 2026-05-05 00:34 | 38.24158 | -94.68371 | 32719 ft | 528 kts | 73° |
| 2026-05-05 00:35 | 38.25595 | -94.59227 | 32721 ft | 527 kts | 73° |
| 2026-05-05 00:35 | 38.27015 | -94.50088 | 32718 ft | 526 kts | 73° |
| 2026-05-05 00:36 | 38.28468 | -94.40971 | 32723 ft | 525 kts | 72° |
| 2026-05-05 00:36 | 38.29982 | -94.31892 | 32724 ft | 524 kts | 72° |
| 2026-05-05 00:37 | 38.31492 | -94.22820 | 32731 ft | 523 kts | 72° |
| 2026-05-05 00:37 | 38.32966 | -94.13747 | 32728 ft | 523 kts | 73° |
| 2026-05-05 00:38 | 38.34415 | -94.04682 | 32724 ft | 522 kts | 73° |
| 2026-05-05 00:38 | 38.35868 | -93.95633 | 32732 ft | 522 kts | 73° |
| 2026-05-05 00:39 | 38.37318 | -93.86576 | 32737 ft | 521 kts | 73° |
| 2026-05-05 00:39 | 38.38764 | -93.77526 | 32745 ft | 521 kts | 73° |
| 2026-05-05 00:40 | 38.40201 | -93.68476 | 32744 ft | 521 kts | 73° |
| 2026-05-05 00:40 | 38.41622 | -93.59436 | 32749 ft | 520 kts | 73° |
| 2026-05-05 00:41 | 38.43040 | -93.50396 | 32743 ft | 519 kts | 73° |
| 2026-05-05 00:41 | 38.44451 | -93.41361 | 32761 ft | 519 kts | 73° |
| 2026-05-05 00:42 | 38.45854 | -93.32340 | 32761 ft | 518 kts | 74° |
| 2026-05-05 00:42 | 38.47242 | -93.23318 | 32755 ft | 518 kts | 74° |
| 2026-05-05 00:43 | 38.48616 | -93.14311 | 32750 ft | 517 kts | 74° |
| 2026-05-05 00:43 | 38.49982 | -93.05305 | 32740 ft | 516 kts | 74° |
| 2026-05-05 00:44 | 38.51351 | -92.96305 | 32741 ft | 516 kts | 75° |
| 2026-05-05 00:44 | 38.52709 | -92.87320 | 32733 ft | 515 kts | 75° |
| 2026-05-05 00:45 | 38.54059 | -92.78332 | 32724 ft | 515 kts | 75° |
| 2026-05-05 00:45 | 38.55400 | -92.69351 | 32718 ft | 514 kts | 75° |
| 2026-05-05 00:46 | 38.56734 | -92.60374 | 32711 ft | 514 kts | 75° |
| 2026-05-05 00:46 | 38.58057 | -92.51397 | 32712 ft | 514 kts | 75° |
| 2026-05-05 00:47 | 38.59372 | -92.42427 | 32715 ft | 513 kts | 75° |
| 2026-05-05 00:47 | 38.60680 | -92.33463 | 32717 ft | 513 kts | 75° |
| 2026-05-05 00:48 | 38.61983 | -92.24495 | 32723 ft | 513 kts | 75° |
| 2026-05-05 00:48 | 38.63276 | -92.15530 | 32721 ft | 513 kts | 75° |
| 2026-05-05 00:49 | 38.64568 | -92.06564 | 32716 ft | 512 kts | 75° |
| 2026-05-05 00:49 | 38.65863 | -91.97611 | 32711 ft | 512 kts | 76° |
| 2026-05-05 00:50 | 38.67153 | -91.88656 | 32710 ft | 511 kts | 76° |
| 2026-05-05 00:50 | 38.68426 | -91.79714 | 32709 ft | 510 kts | 76° |
| 2026-05-05 00:51 | 38.69684 | -91.70785 | 32708 ft | 510 kts | 76° |
| 2026-05-05 00:51 | 38.70925 | -91.61858 | 32719 ft | 509 kts | 76° |
| 2026-05-05 00:52 | 38.72151 | -91.52948 | 32719 ft | 508 kts | 76° |
| 2026-05-05 00:52 | 38.73369 | -91.44036 | 32718 ft | 508 kts | 76° |
| 2026-05-05 00:53 | 38.74585 | -91.35136 | 32718 ft | 507 kts | 76° |
| 2026-05-05 00:53 | 38.75798 | -91.26237 | 32710 ft | 507 kts | 76° |
| 2026-05-05 00:54 | 38.76995 | -91.17337 | 32720 ft | 507 kts | 76° |
| 2026-05-05 00:54 | 38.78189 | -91.08445 | 32719 ft | 506 kts | 76° |
| 2026-05-05 00:55 | 38.79379 | -90.99561 | 32712 ft | 505 kts | 76° |
| 2026-05-05 00:55 | 38.80553 | -90.90689 | 32722 ft | 505 kts | 76° |
| 2026-05-05 00:56 | 38.81711 | -90.81823 | 32711 ft | 504 kts | 77° |
| 2026-05-05 00:56 | 38.82865 | -90.72973 | 32702 ft | 503 kts | 77° |
| 2026-05-05 00:57 | 38.84018 | -90.64148 | 32703 ft | 501 kts | 77° |
| 2026-05-05 00:57 | 38.85164 | -90.55340 | 32702 ft | 500 kts | 77° |
| 2026-05-05 00:58 | 38.86052 | -90.46510 | 32698 ft | 502 kts | 86° |
| 2026-05-05 00:58 | 38.85969 | -90.37557 | 32704 ft | 501 kts | 88° |
| 2026-05-05 00:59 | 38.85887 | -90.28643 | 32730 ft | 499 kts | 88° |
| 2026-05-05 00:59 | 38.85816 | -90.19750 | 32738 ft | 497 kts | 88° |
| 2026-05-05 01:00 | 38.85730 | -90.10894 | 32740 ft | 496 kts | 89° |
| 2026-05-05 01:00 | 38.85626 | -90.02067 | 32728 ft | 494 kts | 89° |
| 2026-05-05 01:01 | 38.85514 | -89.93260 | 32745 ft | 493 kts | 89° |
| 2026-05-05 01:01 | 38.85392 | -89.84490 | 32742 ft | 491 kts | 89° |
| 2026-05-05 01:02 | 38.85284 | -89.75742 | 32733 ft | 490 kts | 89° |
| 2026-05-05 01:02 | 38.85170 | -89.67005 | 32729 ft | 489 kts | 89° |
| 2026-05-05 01:03 | 38.85030 | -89.58280 | 32746 ft | 489 kts | 89° |
| 2026-05-05 01:03 | 38.84882 | -89.49577 | 32745 ft | 488 kts | 89° |
| 2026-05-05 01:04 | 38.84745 | -89.40888 | 32736 ft | 487 kts | 89° |
| 2026-05-05 01:04 | 38.84534 | -89.27877 | 32738 ft | 486 kts | 89° |
| 2026-05-05 01:05 | 38.84369 | -89.19209 | 32759 ft | 486 kts | 90° |
| 2026-05-05 01:05 | 38.84187 | -89.10546 | 32757 ft | 486 kts | 90° |
| 2026-05-05 01:06 | 38.84007 | -89.01876 | 32775 ft | 486 kts | 90° |
| 2026-05-05 01:06 | 38.83836 | -88.93217 | 32781 ft | 486 kts | 90° |
| 2026-05-05 01:07 | 38.83659 | -88.84564 | 32775 ft | 485 kts | 90° |
| 2026-05-05 01:07 | 38.83465 | -88.75923 | 32781 ft | 484 kts | 90° |
| 2026-05-05 01:08 | 38.83269 | -88.67296 | 32788 ft | 484 kts | 90° |
| 2026-05-05 01:08 | 38.83066 | -88.58677 | 32793 ft | 484 kts | 90° |
| 2026-05-05 01:09 | 38.82857 | -88.50051 | 32794 ft | 484 kts | 90° |
| 2026-05-05 01:09 | 38.82638 | -88.41426 | 32792 ft | 484 kts | 90° |
| 2026-05-05 01:10 | 38.82413 | -88.32787 | 32785 ft | 485 kts | 90° |
| 2026-05-05 01:10 | 38.82187 | -88.24143 | 32780 ft | 485 kts | 90° |
| 2026-05-05 01:11 | 38.81953 | -88.15493 | 32789 ft | 485 kts | 90° |
| 2026-05-05 01:11 | 38.81706 | -88.06842 | 32792 ft | 485 kts | 91° |
| 2026-05-05 01:12 | 38.81495 | -87.99663 | 32784 ft | 485 kts | 91° |
| 2026-05-05 01:12 | 38.81369 | -87.95341 | 32890 ft | 485 kts | 91° |
| 2026-05-05 01:12 | 38.81244 | -87.91031 | 32909 ft | 484 kts | 91° |
| 2026-05-05 01:13 | 38.80991 | -87.82402 | 32939 ft | 484 kts | 91° |
| 2026-05-05 01:13 | 38.80721 | -87.73784 | 32946 ft | 484 kts | 91° |
| 2026-05-05 01:14 | 38.80580 | -87.69470 | 32777 ft | 484 kts | 91° |
| 2026-05-05 01:14 | 38.80441 | -87.65162 | 32769 ft | 484 kts | 91° |
| 2026-05-05 01:14 | 38.80167 | -87.56534 | 32771 ft | 484 kts | 91° |
| 2026-05-05 01:15 | 38.79880 | -87.47909 | 32771 ft | 484 kts | 91° |
| 2026-05-05 01:15 | 38.79585 | -87.39282 | 32773 ft | 485 kts | 91° |
| 2026-05-05 01:16 | 38.79287 | -87.30653 | 32776 ft | 484 kts | 91° |
| 2026-05-05 01:16 | 38.78987 | -87.22032 | 32773 ft | 484 kts | 91° |
| 2026-05-05 01:17 | 38.78674 | -87.13405 | 32777 ft | 484 kts | 91° |
| 2026-05-05 01:17 | 38.78351 | -87.04780 | 32782 ft | 485 kts | 92° |
| 2026-05-05 01:18 | 38.78026 | -86.96158 | 32789 ft | 484 kts | 92° |
| 2026-05-05 01:18 | 38.77701 | -86.87537 | 32794 ft | 484 kts | 92° |
| 2026-05-05 01:19 | 38.77371 | -86.78924 | 32805 ft | 484 kts | 92° |
| 2026-05-05 01:19 | 38.77031 | -86.70316 | 32806 ft | 483 kts | 92° |
| 2026-05-05 01:20 | 38.76673 | -86.61723 | 32799 ft | 483 kts | 92° |
| 2026-05-05 01:20 | 38.76313 | -86.53132 | 32799 ft | 482 kts | 92° |
| 2026-05-05 01:21 | 38.75955 | -86.44552 | 32793 ft | 482 kts | 92° |
| 2026-05-05 01:21 | 38.75590 | -86.35971 | 32795 ft | 482 kts | 92° |
| 2026-05-05 01:22 | 38.75220 | -86.27393 | 32796 ft | 482 kts | 92° |
| 2026-05-05 01:22 | 38.74848 | -86.18818 | 32801 ft | 482 kts | 92° |
| 2026-05-05 01:23 | 38.74461 | -86.10236 | 32808 ft | 483 kts | 92° |
| 2026-05-05 01:23 | 38.74063 | -86.01651 | 32820 ft | 483 kts | 93° |
| 2026-05-05 01:24 | 38.73666 | -85.93071 | 32818 ft | 482 kts | 92° |
| 2026-05-05 01:24 | 38.73269 | -85.84500 | 32829 ft | 482 kts | 93° |
| 2026-05-05 01:25 | 38.72854 | -85.75939 | 32832 ft | 482 kts | 93° |
| 2026-05-05 01:25 | 38.72435 | -85.67378 | 32834 ft | 481 kts | 93° |
| 2026-05-05 01:26 | 38.72008 | -85.58822 | 32837 ft | 481 kts | 93° |
| 2026-05-05 01:26 | 38.71577 | -85.50287 | 32835 ft | 480 kts | 93° |
| 2026-05-05 01:27 | 38.71146 | -85.41749 | 32836 ft | 480 kts | 93° |
| 2026-05-05 01:27 | 38.70710 | -85.33223 | 32831 ft | 480 kts | 93° |
| 2026-05-05 01:28 | 38.70266 | -85.24708 | 32835 ft | 479 kts | 93° |
| 2026-05-05 01:28 | 38.69811 | -85.16198 | 32839 ft | 479 kts | 94° |
| 2026-05-05 01:29 | 38.69241 | -85.07705 | 32840 ft | 479 kts | 95° |
| 2026-05-05 01:29 | 38.68572 | -84.99217 | 32844 ft | 479 kts | 95° |
| 2026-05-05 01:30 | 38.67905 | -84.90740 | 32846 ft | 479 kts | 95° |
| 2026-05-05 01:30 | 38.67263 | -84.82268 | 32846 ft | 478 kts | 95° |
| 2026-05-05 01:31 | 38.66622 | -84.73805 | 32850 ft | 478 kts | 95° |
| 2026-05-05 01:31 | 38.65979 | -84.65348 | 32856 ft | 477 kts | 95° |
| 2026-05-05 01:32 | 38.65326 | -84.56905 | 32851 ft | 477 kts | 95° |
| 2026-05-05 01:32 | 38.64655 | -84.48472 | 32859 ft | 476 kts | 95° |
| 2026-05-05 01:33 | 38.64279 | -84.40037 | 32853 ft | 474 kts | 85° |
| 2026-05-05 01:33 | 38.64776 | -84.31626 | 32854 ft | 474 kts | 84° |
| 2026-05-05 01:34 | 38.65258 | -84.23215 | 32859 ft | 474 kts | 85° |
| 2026-05-05 01:34 | 38.65721 | -84.14802 | 32864 ft | 474 kts | 85° |
| 2026-05-05 01:35 | 38.66175 | -84.06396 | 32867 ft | 474 kts | 85° |
| 2026-05-05 01:35 | 38.66619 | -83.97986 | 32873 ft | 474 kts | 85° |
| 2026-05-05 01:36 | 38.67068 | -83.89574 | 32880 ft | 473 kts | 85° |
| 2026-05-05 01:36 | 38.67506 | -83.81171 | 32882 ft | 473 kts | 85° |
| 2026-05-05 01:37 | 38.67937 | -83.72767 | 32882 ft | 473 kts | 85° |
| 2026-05-05 01:37 | 38.68363 | -83.64365 | 32875 ft | 473 kts | 85° |
| 2026-05-05 01:38 | 38.68790 | -83.55960 | 32875 ft | 473 kts | 85° |
| 2026-05-05 01:38 | 38.69210 | -83.47554 | 32871 ft | 473 kts | 85° |
| 2026-05-05 01:39 | 38.69618 | -83.39141 | 32867 ft | 473 kts | 85° |
| 2026-05-05 01:39 | 38.70026 | -83.30734 | 32858 ft | 474 kts | 85° |
| 2026-05-05 01:40 | 38.70422 | -83.22315 | 32857 ft | 474 kts | 85° |
| 2026-05-05 01:40 | 38.70815 | -83.13892 | 32858 ft | 474 kts | 85° |
| 2026-05-05 01:41 | 38.71195 | -83.05469 | 32852 ft | 474 kts | 85° |
| 2026-05-05 01:41 | 38.71572 | -82.97037 | 32849 ft | 474 kts | 85° |
| 2026-05-05 01:42 | 38.71942 | -82.88604 | 32847 ft | 474 kts | 85° |
| 2026-05-05 01:42 | 38.72314 | -82.80166 | 32844 ft | 475 kts | 85° |
| 2026-05-05 01:43 | 38.72681 | -82.71730 | 32849 ft | 475 kts | 85° |
| 2026-05-05 01:43 | 38.73040 | -82.63278 | 32870 ft | 475 kts | 85° |
| 2026-05-05 01:44 | 38.73392 | -82.54828 | 32871 ft | 475 kts | 85° |
| 2026-05-05 01:44 | 38.73740 | -82.46365 | 32864 ft | 476 kts | 85° |
| 2026-05-05 01:45 | 38.74077 | -82.37904 | 32859 ft | 476 kts | 85° |
| 2026-05-05 01:45 | 38.74407 | -82.29438 | 32862 ft | 476 kts | 86° |
| 2026-05-05 01:46 | 38.74570 | -82.25200 | 32755 ft | 474 kts | 85° |
| 2026-05-05 01:46 | 38.74727 | -82.21024 | 32479 ft | 466 kts | 86° |
| 2026-05-05 01:46 | 38.74881 | -82.16917 | 32214 ft | 458 kts | 86° |
| 2026-05-05 01:46 | 38.75036 | -82.12873 | 31952 ft | 453 kts | 85° |
| 2026-05-05 01:47 | 38.75485 | -82.08902 | 31699 ft | 448 kts | 73° |
| 2026-05-05 01:47 | 38.76480 | -82.05156 | 31445 ft | 443 kts | 62° |
| 2026-05-05 01:47 | 38.77971 | -82.01740 | 31193 ft | 437 kts | 51° |
| 2026-05-05 01:47 | 38.79891 | -81.98765 | 30944 ft | 430 kts | 40° |
| 2026-05-05 01:48 | 38.82152 | -81.96306 | 30686 ft | 424 kts | 31° |
| 2026-05-05 01:48 | 38.84537 | -81.94081 | 30453 ft | 424 kts | 31° |
| 2026-05-05 01:48 | 38.86916 | -81.91850 | 30219 ft | 423 kts | 31° |
| 2026-05-05 01:48 | 38.89291 | -81.89615 | 29966 ft | 423 kts | 31° |
| 2026-05-05 01:49 | 38.91658 | -81.87384 | 29688 ft | 422 kts | 31° |
| 2026-05-05 01:49 | 38.94015 | -81.85162 | 29408 ft | 420 kts | 32° |
| 2026-05-05 01:49 | 38.96365 | -81.82942 | 29127 ft | 419 kts | 32° |
| 2026-05-05 01:49 | 38.98705 | -81.80728 | 28851 ft | 417 kts | 32° |
| 2026-05-05 01:50 | 39.01038 | -81.78517 | 28565 ft | 415 kts | 32° |
| 2026-05-05 01:50 | 39.03358 | -81.76318 | 28309 ft | 414 kts | 32° |
| 2026-05-05 01:50 | 39.05671 | -81.74127 | 28034 ft | 412 kts | 32° |
| 2026-05-05 01:50 | 39.07973 | -81.71947 | 27765 ft | 410 kts | 32° |
| 2026-05-05 01:51 | 39.10269 | -81.69772 | 27503 ft | 409 kts | 32° |
| 2026-05-05 01:51 | 39.12555 | -81.67607 | 27240 ft | 407 kts | 32° |
| 2026-05-05 01:51 | 39.14833 | -81.65451 | 26984 ft | 406 kts | 32° |
| 2026-05-05 01:51 | 39.17100 | -81.63300 | 26727 ft | 404 kts | 32° |
| 2026-05-05 01:52 | 39.19356 | -81.61153 | 26473 ft | 403 kts | 32° |
| 2026-05-05 01:52 | 39.21607 | -81.59009 | 26223 ft | 401 kts | 32° |
| 2026-05-05 01:52 | 39.23845 | -81.56876 | 25970 ft | 399 kts | 32° |
| 2026-05-05 01:52 | 39.26073 | -81.54750 | 25724 ft | 398 kts | 32° |
| 2026-05-05 01:53 | 39.28294 | -81.52632 | 25481 ft | 396 kts | 32° |
| 2026-05-05 01:53 | 39.29760 | -81.51232 | 25320 ft | 395 kts | 32° |
| 2026-05-05 01:53 | 39.31966 | -81.49124 | 25076 ft | 394 kts | 32° |
| 2026-05-05 01:53 | 39.34161 | -81.47023 | 24836 ft | 392 kts | 32° |
| 2026-05-05 01:54 | 39.36349 | -81.44929 | 24601 ft | 391 kts | 32° |
| 2026-05-05 01:54 | 39.38529 | -81.42842 | 24366 ft | 389 kts | 32° |
| 2026-05-05 01:54 | 39.40703 | -81.40759 | 24128 ft | 388 kts | 33° |
| 2026-05-05 01:54 | 39.42869 | -81.38685 | 23893 ft | 387 kts | 33° |
| 2026-05-05 01:55 | 39.45026 | -81.36616 | 23665 ft | 385 kts | 33° |
| 2026-05-05 01:55 | 39.47162 | -81.34564 | 23359 ft | 381 kts | 33° |
| 2026-05-05 01:55 | 39.49280 | -81.32530 | 22927 ft | 378 kts | 33° |
| 2026-05-05 01:55 | 39.51379 | -81.30512 | 22515 ft | 375 kts | 33° |
| 2026-05-05 01:56 | 39.53465 | -81.28506 | 22101 ft | 372 kts | 33° |
| 2026-05-05 01:56 | 39.55535 | -81.26516 | 21697 ft | 369 kts | 33° |
| 2026-05-05 01:56 | 39.57589 | -81.24542 | 21301 ft | 366 kts | 32° |
| 2026-05-05 01:56 | 39.59627 | -81.22583 | 20889 ft | 364 kts | 32° |
| 2026-05-05 01:57 | 39.61653 | -81.20634 | 20496 ft | 361 kts | 32° |
| 2026-05-05 01:57 | 39.63665 | -81.18695 | 20086 ft | 359 kts | 32° |
| 2026-05-05 01:57 | 39.65654 | -81.16777 | 19682 ft | 357 kts | 32° |
| 2026-05-05 01:57 | 39.67649 | -81.14851 | 19288 ft | 355 kts | 32° |
| 2026-05-05 01:58 | 39.69622 | -81.12942 | 18902 ft | 353 kts | 33° |
| 2026-05-05 01:58 | 39.71586 | -81.11038 | 18510 ft | 352 kts | 33° |
| 2026-05-05 01:58 | 39.73541 | -81.09140 | 18110 ft | 350 kts | 33° |
| 2026-05-05 01:58 | 39.75490 | -81.07250 | 17666 ft | 349 kts | 32° |
| 2026-05-05 01:59 | 39.77423 | -81.05378 | 17420 ft | 342 kts | 32° |
| 2026-05-05 01:59 | 39.79315 | -81.03541 | 17079 ft | 338 kts | 32° |
| 2026-05-05 01:59 | 39.81190 | -81.01724 | 16704 ft | 335 kts | 32° |
| 2026-05-05 01:59 | 39.83053 | -80.99917 | 16333 ft | 333 kts | 32° |
| 2026-05-05 02:00 | 39.84905 | -80.98119 | 15958 ft | 331 kts | 32° |
| 2026-05-05 02:00 | 39.86748 | -80.96326 | 15584 ft | 330 kts | 32° |
| 2026-05-05 02:00 | 39.88579 | -80.94542 | 15217 ft | 328 kts | 32° |
| 2026-05-05 02:00 | 39.90403 | -80.92763 | 14850 ft | 327 kts | 32° |
| 2026-05-05 02:01 | 39.92219 | -80.90990 | 14488 ft | 326 kts | 32° |
| 2026-05-05 02:01 | 39.94031 | -80.89222 | 14117 ft | 325 kts | 32° |
| 2026-05-05 02:01 | 39.95836 | -80.87463 | 13756 ft | 324 kts | 32° |
| 2026-05-05 02:01 | 39.97638 | -80.85703 | 13364 ft | 323 kts | 31° |
| 2026-05-05 02:02 | 39.99435 | -80.83948 | 12993 ft | 321 kts | 31° |
| 2026-05-05 02:02 | 40.01217 | -80.82205 | 12646 ft | 320 kts | 32° |
| 2026-05-05 02:02 | 40.02880 | -80.80261 | 12287 ft | 322 kts | 39° |
| 2026-05-05 02:02 | 40.04485 | -80.78240 | 11913 ft | 321 kts | 39° |
| 2026-05-05 02:03 | 40.06089 | -80.76222 | 11565 ft | 320 kts | 39° |
| 2026-05-05 02:03 | 40.07690 | -80.74208 | 11201 ft | 319 kts | 39° |
| 2026-05-05 02:03 | 40.09285 | -80.72198 | 10846 ft | 319 kts | 39° |
| 2026-05-05 02:03 | 40.10879 | -80.70188 | 10490 ft | 318 kts | 39° |
| 2026-05-05 02:04 | 40.12472 | -80.68181 | 10108 ft | 319 kts | 39° |
| 2026-05-05 02:04 | 40.14067 | -80.66142 | 9702 ft | 322 kts | 40° |
| 2026-05-05 02:04 | 40.15639 | -80.64055 | 9293 ft | 322 kts | 41° |
| 2026-05-05 02:04 | 40.17192 | -80.61954 | 8939 ft | 320 kts | 41° |
| 2026-05-05 02:05 | 40.18730 | -80.59860 | 8594 ft | 318 kts | 41° |
| 2026-05-05 02:05 | 40.20265 | -80.57781 | 8230 ft | 317 kts | 41° |
| 2026-05-05 02:05 | 40.21796 | -80.55719 | 7916 ft | 315 kts | 41° |
| 2026-05-05 02:05 | 40.23322 | -80.53668 | 7561 ft | 314 kts | 41° |
| 2026-05-05 02:06 | 40.24844 | -80.51629 | 7210 ft | 312 kts | 41° |
| 2026-05-05 02:06 | 40.26316 | -80.49543 | 6890 ft | 313 kts | 49° |
| 2026-05-05 02:06 | 40.27460 | -80.47120 | 6552 ft | 314 kts | 60° |
| 2026-05-05 02:06 | 40.28461 | -80.44577 | 6185 ft | 314 kts | 60° |
| 2026-05-05 02:07 | 40.29461 | -80.42049 | 5896 ft | 312 kts | 61° |
| 2026-05-05 02:07 | 40.30459 | -80.39533 | 5526 ft | 311 kts | 61° |
| 2026-05-05 02:07 | 40.31453 | -80.37024 | 5155 ft | 310 kts | 61° |
| 2026-05-05 02:07 | 40.32443 | -80.34521 | 4821 ft | 308 kts | 62° |
| 2026-05-05 02:08 | 40.33427 | -80.32033 | 4466 ft | 307 kts | 62° |
| 2026-05-05 02:08 | 40.34409 | -80.29549 | 4120 ft | 307 kts | 63° |
| 2026-05-05 02:08 | 40.35385 | -80.27072 | 3982 ft | 306 kts | 64° |
| 2026-05-05 02:08 | 40.36366 | -80.24577 | 4005 ft | 309 kts | 63° |
| 2026-05-05 02:09 | 40.37351 | -80.22073 | 4006 ft | 310 kts | 63° |
| 2026-05-05 02:09 | 40.38336 | -80.19575 | 3997 ft | 304 kts | 64° |
| 2026-05-05 02:09 | 40.39250 | -80.17157 | 4003 ft | 286 kts | 69° |
| 2026-05-05 02:09 | 40.39793 | -80.14728 | 4011 ft | 271 kts | 84° |
| 2026-05-05 02:10 | 40.39938 | -80.12319 | 4005 ft | 260 kts | 97° |
| 2026-05-05 02:10 | 40.39862 | -80.09963 | 4003 ft | 258 kts | 99° |
| 2026-05-05 02:10 | 40.39791 | -80.07609 | 4017 ft | 258 kts | 98° |
| 2026-05-05 02:10 | 40.39723 | -80.05256 | 4014 ft | 259 kts | 98° |
| 2026-05-05 02:11 | 40.39702 | -80.02891 | 4012 ft | 263 kts | 88° |
| 2026-05-05 02:11 | 40.40327 | -80.00631 | 4021 ft | 267 kts | 54° |
| 2026-05-05 02:11 | 40.41688 | -79.99037 | 4026 ft | 259 kts | 21° |
| 2026-05-05 02:11 | 40.43386 | -79.98382 | 4031 ft | 254 kts | 3° |
| 2026-05-05 02:12 | 40.45123 | -79.98021 | 4016 ft | 253 kts | 0° |
| 2026-05-05 02:12 | 40.48566 | -79.97552 | 4004 ft | 236 kts | 337° |
| 2026-05-05 02:12 | 40.49878 | -79.98578 | 4010 ft | 212 kts | 295° |
| 2026-05-05 02:13 | 40.50240 | -80.00280 | 4019 ft | 188 kts | 255° |
| 2026-05-05 02:13 | 40.49685 | -80.01797 | 3908 ft | 186 kts | 238° |
| 2026-05-05 02:13 | 40.49072 | -80.03264 | 3727 ft | 179 kts | 241° |
| 2026-05-05 02:13 | 40.48545 | -80.04702 | 3546 ft | 171 kts | 249° |
| 2026-05-05 02:14 | 40.48321 | -80.06189 | 3347 ft | 162 kts | 259° |
| 2026-05-05 02:14 | 40.48264 | -80.07638 | 3131 ft | 155 kts | 259° |
| 2026-05-05 02:14 | 40.48261 | -80.09067 | 2943 ft | 158 kts | 261° |
| 2026-05-05 02:14 | 40.48287 | -80.10457 | 2768 ft | 149 kts | 263° |
| 2026-05-05 02:15 | 40.48321 | -80.11805 | 2561 ft | 148 kts | 264° |
| 2026-05-05 02:15 | 40.48356 | -80.13142 | 2366 ft | 145 kts | 263° |
| 2026-05-05 02:15 | 40.48388 | -80.14477 | 2157 ft | 148 kts | 263° |
| 2026-05-05 02:15 | 40.48421 | -80.15836 | 1983 ft | 149 kts | 264° |
| 2026-05-05 02:16 | 40.48456 | -80.17189 | 1745 ft | 148 kts | 266° |
| 2026-05-05 02:16 | 40.48493 | -80.18544 | 1536 ft | 147 kts | 269° |
| 2026-05-05 02:16 | 40.48533 | -80.19891 | 1353 ft | 149 kts | 269° |
| 2026-05-05 02:16 | 40.48568 | -80.21250 | 1174 ft | 149 kts | 269° |
| 2026-05-05 02:17 | 40.48600 | -80.22502 | 1140 ft | 118 kts | 273° |
| 2026-05-05 02:17 | 40.48624 | -80.23397 | 1137 ft | 79 kts | 272° |
| 2026-05-05 02:17 | 40.48642 | -80.24010 | 1142 ft | 57 kts | 272° |
| 2026-05-05 02:17 | 40.48652 | -80.24475 | 1149 ft | 46 kts | 273° |
| 2026-05-05 02:18 | 40.48695 | -80.24767 | 1143 ft | 11 kts | 334° |
| 2026-05-05 02:18 | 40.48714 | -80.24767 | 1144 ft | 4 kts | 4° |
| 2026-05-05 02:18 | 40.48759 | -80.24765 | 1146 ft | 9 kts | 1° |
| 2026-05-05 02:18 | 40.48830 | -80.24763 | 1149 ft | 11 kts | 360° |
| 2026-05-05 02:19 | 40.48917 | -80.24768 | 1152 ft | 15 kts | 358° |
| 2026-05-05 02:19 | 40.49045 | -80.24777 | 1150 ft | 21 kts | 355° |
| 2026-05-05 02:19 | 40.49165 | -80.24775 | 1152 ft | 14 kts | 2° |
| 2026-05-05 02:19 | 40.49246 | -80.24731 | 1151 ft | 13 kts | 49° |
| 2026-05-05 02:20 | 40.49305 | -80.24635 | 1150 ft | 14 kts | 68° |
| 2026-05-05 02:20 | 40.49256 | -80.24529 | 1148 ft | 16 kts | 138° |
| 2026-05-05 02:20 | 40.49226 | -80.24412 | 1150 ft | 13 kts | 94° |
| 2026-05-05 02:20 | 40.49217 | -80.24293 | 1149 ft | 13 kts | 93° |
| 2026-05-05 02:21 | 40.49214 | -80.24222 | 1149 ft | 7 kts | 92° |
| 2026-05-05 02:21 | 40.49227 | -80.24178 | 1150 ft | 3 kts | 41° |
| 2026-05-05 02:21 | 40.49241 | -80.24171 | 1151 ft | 1 kts | 12° |
| 2026-05-05 02:21 | 40.49245 | -80.24172 | 1149 ft | 1 kts | 359° |
| 2026-05-05 02:22 | 40.49259 | -80.24172 | 1152 ft | 1 kts | 1° |
| 2026-05-05 02:22 | 40.49261 | -80.24172 | 1151 ft | 1 kts | 1° |
| 2026-05-05 02:22 | 40.49262 | -80.24172 | 1151 ft | 0 kts | 1° |